sensor_id;sensor_type;location;lat;lon;timestamp;P1;durP1;ratioP1;P2;durP2;ratioP2
21274;SDS011;36472;52.170;20.884;2024-01-10T00:00:07;82.67;;;36.17;;
21274;SDS011;36472;52.170;20.884;2024-01-10T00:02:58;75.27;;;33.57;;
21274;SDS011;36472;52.170;20.884;2024-01-10T00:05:28;78.70;;;34.27;;
21274;SDS011;36472;52.170;20.884;2024-01-10T00:07:57;75.67;;;32.30;;
21274;SDS011;36472;52.170;20.884;2024-01-10T00:10:26;72.93;;;34.30;;
21274;SDS011;36472;52.170;20.884;2024-01-10T00:12:55;77.33;;;34.43;;
21274;SDS011;36472;52.170;20.884;2024-01-10T00:15:24;73.30;;;33.10;;
21274;SDS011;36472;52.170;20.884;2024-01-10T00:17:53;76.80;;;36.83;;
21274;SDS011;36472;52.170;20.884;2024-01-10T00:20:23;79.67;;;36.57;;
21274;SDS011;36472;52.170;20.884;2024-01-10T00:22:52;73.90;;;34.27;;
21274;SDS011;36472;52.170;20.884;2024-01-10T00:25:21;76.57;;;38.67;;
21274;SDS011;36472;52.170;20.884;2024-01-10T00:27:50;71.90;;;34.60;;
21274;SDS011;36472;52.170;20.884;2024-01-10T00:30:19;78.37;;;36.40;;
21274;SDS011;36472;52.170;20.884;2024-01-10T00:32:49;69.93;;;32.80;;
21274;SDS011;36472;52.170;20.884;2024-01-10T00:35:18;79.23;;;36.70;;
21274;SDS011;36472;52.170;20.884;2024-01-10T00:37:48;75.07;;;35.00;;
21274;SDS011;36472;52.170;20.884;2024-01-10T00:40:18;74.37;;;33.03;;
21274;SDS011;36472;52.170;20.884;2024-01-10T00:42:47;77.30;;;33.60;;
21274;SDS011;36472;52.170;20.884;2024-01-10T00:45:16;80.23;;;34.63;;
21274;SDS011;36472;52.170;20.884;2024-01-10T00:47:45;88.37;;;38.67;;
21274;SDS011;36472;52.170;20.884;2024-01-10T00:50:14;89.33;;;42.63;;
21274;SDS011;36472;52.170;20.884;2024-01-10T00:52:44;79.60;;;37.67;;
21274;SDS011;36472;52.170;20.884;2024-01-10T00:55:15;72.57;;;34.93;;
21274;SDS011;36472;52.170;20.884;2024-01-10T00:57:44;74.50;;;34.87;;
21274;SDS011;36472;52.170;20.884;2024-01-10T01:00:14;74.37;;;33.30;;
21274;SDS011;36472;52.170;20.884;2024-01-10T01:02:43;74.47;;;34.90;;
21274;SDS011;36472;52.170;20.884;2024-01-10T01:05:12;80.20;;;38.77;;
21274;SDS011;36472;52.170;20.884;2024-01-10T01:07:42;78.93;;;35.20;;
21274;SDS011;36472;52.170;20.884;2024-01-10T01:10:11;76.40;;;35.73;;
21274;SDS011;36472;52.170;20.884;2024-01-10T01:12:41;80.10;;;34.97;;
21274;SDS011;36472;52.170;20.884;2024-01-10T01:15:10;78.17;;;36.80;;
21274;SDS011;36472;52.170;20.884;2024-01-10T01:17:40;77.90;;;35.20;;
21274;SDS011;36472;52.170;20.884;2024-01-10T01:20:09;83.30;;;33.77;;
21274;SDS011;36472;52.170;20.884;2024-01-10T01:22:38;73.53;;;32.67;;
21274;SDS011;36472;52.170;20.884;2024-01-10T01:25:07;81.00;;;36.37;;
21274;SDS011;36472;52.170;20.884;2024-01-10T01:27:36;82.73;;;35.73;;
21274;SDS011;36472;52.170;20.884;2024-01-10T01:30:07;75.17;;;33.13;;
21274;SDS011;36472;52.170;20.884;2024-01-10T01:32:38;79.80;;;35.13;;
21274;SDS011;36472;52.170;20.884;2024-01-10T01:35:07;72.43;;;32.57;;
21274;SDS011;36472;52.170;20.884;2024-01-10T01:37:36;73.87;;;34.07;;
21274;SDS011;36472;52.170;20.884;2024-01-10T01:40:06;79.10;;;35.20;;
21274;SDS011;36472;52.170;20.884;2024-01-10T01:42:36;79.53;;;34.40;;
21274;SDS011;36472;52.170;20.884;2024-01-10T01:45:06;80.17;;;32.50;;
21274;SDS011;36472;52.170;20.884;2024-01-10T01:47:38;82.00;;;36.27;;
21274;SDS011;36472;52.170;20.884;2024-01-10T01:50:08;74.33;;;35.00;;
21274;SDS011;36472;52.170;20.884;2024-01-10T01:52:38;74.20;;;32.97;;
21274;SDS011;36472;52.170;20.884;2024-01-10T01:55:08;72.80;;;35.30;;
21274;SDS011;36472;52.170;20.884;2024-01-10T01:57:38;73.87;;;35.83;;
21274;SDS011;36472;52.170;20.884;2024-01-10T02:00:09;81.70;;;35.47;;
21274;SDS011;36472;52.170;20.884;2024-01-10T02:02:39;74.07;;;33.53;;
21274;SDS011;36472;52.170;20.884;2024-01-10T02:05:10;72.83;;;31.30;;
21274;SDS011;36472;52.170;20.884;2024-01-10T02:07:41;74.47;;;32.27;;
21274;SDS011;36472;52.170;20.884;2024-01-10T02:10:10;70.37;;;32.00;;
21274;SDS011;36472;52.170;20.884;2024-01-10T02:12:39;74.13;;;31.27;;
21274;SDS011;36472;52.170;20.884;2024-01-10T02:15:10;69.07;;;30.70;;
21274;SDS011;36472;52.170;20.884;2024-01-10T02:17:41;74.27;;;32.60;;
21274;SDS011;36472;52.170;20.884;2024-01-10T02:20:10;73.83;;;32.83;;
21274;SDS011;36472;52.170;20.884;2024-01-10T02:22:40;70.43;;;34.00;;
21274;SDS011;36472;52.170;20.884;2024-01-10T02:25:11;73.67;;;34.40;;
21274;SDS011;36472;52.170;20.884;2024-01-10T02:27:41;72.53;;;31.07;;
21274;SDS011;36472;52.170;20.884;2024-01-10T02:30:10;88.07;;;36.47;;
21274;SDS011;36472;52.170;20.884;2024-01-10T02:32:40;84.17;;;34.70;;
21274;SDS011;36472;52.170;20.884;2024-01-10T02:35:09;82.83;;;36.93;;
21274;SDS011;36472;52.170;20.884;2024-01-10T02:37:38;76.50;;;35.93;;
21274;SDS011;36472;52.170;20.884;2024-01-10T02:40:08;79.80;;;36.10;;
21274;SDS011;36472;52.170;20.884;2024-01-10T02:42:39;73.90;;;34.63;;
21274;SDS011;36472;52.170;20.884;2024-01-10T02:45:08;79.00;;;34.23;;
21274;SDS011;36472;52.170;20.884;2024-01-10T02:47:37;85.17;;;36.63;;
21274;SDS011;36472;52.170;20.884;2024-01-10T02:50:07;77.70;;;34.93;;
21274;SDS011;36472;52.170;20.884;2024-01-10T02:52:37;75.33;;;32.77;;
21274;SDS011;36472;52.170;20.884;2024-01-10T02:55:06;76.83;;;34.13;;
21274;SDS011;36472;52.170;20.884;2024-01-10T02:57:36;78.37;;;34.90;;
21274;SDS011;36472;52.170;20.884;2024-01-10T03:00:06;75.43;;;35.60;;
21274;SDS011;36472;52.170;20.884;2024-01-10T03:02:36;78.50;;;34.67;;
21274;SDS011;36472;52.170;20.884;2024-01-10T03:05:06;78.00;;;35.43;;
21274;SDS011;36472;52.170;20.884;2024-01-10T03:07:35;76.63;;;35.63;;
21274;SDS011;36472;52.170;20.884;2024-01-10T03:10:05;82.93;;;40.50;;
21274;SDS011;36472;52.170;20.884;2024-01-10T03:12:36;79.23;;;34.07;;
21274;SDS011;36472;52.170;20.884;2024-01-10T03:15:05;78.13;;;35.60;;
21274;SDS011;36472;52.170;20.884;2024-01-10T03:17:35;85.37;;;39.23;;
21274;SDS011;36472;52.170;20.884;2024-01-10T03:20:04;75.90;;;36.73;;
21274;SDS011;36472;52.170;20.884;2024-01-10T03:22:36;70.57;;;36.57;;
21274;SDS011;36472;52.170;20.884;2024-01-10T03:25:05;75.80;;;33.53;;
21274;SDS011;36472;52.170;20.884;2024-01-10T03:27:36;72.40;;;32.53;;
21274;SDS011;36472;52.170;20.884;2024-01-10T03:30:06;83.37;;;36.83;;
21274;SDS011;36472;52.170;20.884;2024-01-10T03:32:36;72.60;;;32.43;;
21274;SDS011;36472;52.170;20.884;2024-01-10T03:35:06;70.60;;;32.00;;
21274;SDS011;36472;52.170;20.884;2024-01-10T03:37:36;76.83;;;33.07;;
21274;SDS011;36472;52.170;20.884;2024-01-10T03:40:06;78.07;;;33.70;;
21274;SDS011;36472;52.170;20.884;2024-01-10T03:42:37;83.80;;;39.47;;
21274;SDS011;36472;52.170;20.884;2024-01-10T03:45:07;77.97;;;33.73;;
21274;SDS011;36472;52.170;20.884;2024-01-10T03:47:36;79.37;;;34.33;;
21274;SDS011;36472;52.170;20.884;2024-01-10T03:50:05;68.20;;;33.53;;
21274;SDS011;36472;52.170;20.884;2024-01-10T03:52:35;84.73;;;36.93;;
21274;SDS011;36472;52.170;20.884;2024-01-10T03:55:04;85.07;;;35.03;;
21274;SDS011;36472;52.170;20.884;2024-01-10T03:57:33;71.90;;;33.17;;
21274;SDS011;36472;52.170;20.884;2024-01-10T04:00:05;77.80;;;33.27;;
21274;SDS011;36472;52.170;20.884;2024-01-10T04:02:36;73.83;;;33.63;;
21274;SDS011;36472;52.170;20.884;2024-01-10T04:05:07;82.27;;;40.27;;
21274;SDS011;36472;52.170;20.884;2024-01-10T04:07:39;80.03;;;34.03;;
21274;SDS011;36472;52.170;20.884;2024-01-10T04:10:09;81.00;;;36.13;;
21274;SDS011;36472;52.170;20.884;2024-01-10T04:12:41;78.37;;;33.27;;
21274;SDS011;36472;52.170;20.884;2024-01-10T04:15:12;73.53;;;32.97;;
21274;SDS011;36472;52.170;20.884;2024-01-10T04:17:41;67.60;;;32.33;;
21274;SDS011;36472;52.170;20.884;2024-01-10T04:20:10;75.77;;;34.50;;
21274;SDS011;36472;52.170;20.884;2024-01-10T04:22:40;81.77;;;37.33;;
21274;SDS011;36472;52.170;20.884;2024-01-10T04:25:09;75.37;;;33.33;;
21274;SDS011;36472;52.170;20.884;2024-01-10T04:27:39;77.50;;;36.67;;
21274;SDS011;36472;52.170;20.884;2024-01-10T04:30:08;74.70;;;32.43;;
21274;SDS011;36472;52.170;20.884;2024-01-10T04:32:40;77.10;;;34.73;;
21274;SDS011;36472;52.170;20.884;2024-01-10T04:35:09;75.17;;;32.83;;
21274;SDS011;36472;52.170;20.884;2024-01-10T04:37:38;74.37;;;36.43;;
21274;SDS011;36472;52.170;20.884;2024-01-10T04:40:08;79.33;;;36.33;;
21274;SDS011;36472;52.170;20.884;2024-01-10T04:42:37;79.33;;;35.83;;
21274;SDS011;36472;52.170;20.884;2024-01-10T04:45:06;70.50;;;31.17;;
21274;SDS011;36472;52.170;20.884;2024-01-10T04:47:36;69.10;;;33.67;;
21274;SDS011;36472;52.170;20.884;2024-01-10T04:50:07;67.80;;;31.80;;
21274;SDS011;36472;52.170;20.884;2024-01-10T04:52:40;75.27;;;36.07;;
21274;SDS011;36472;52.170;20.884;2024-01-10T04:55:09;72.40;;;33.37;;
21274;SDS011;36472;52.170;20.884;2024-01-10T04:57:38;76.13;;;35.33;;
21274;SDS011;36472;52.170;20.884;2024-01-10T05:00:07;69.90;;;31.57;;
21274;SDS011;36472;52.170;20.884;2024-01-10T05:02:37;75.67;;;33.20;;
21274;SDS011;36472;52.170;20.884;2024-01-10T05:05:08;78.67;;;39.33;;
21274;SDS011;36472;52.170;20.884;2024-01-10T05:07:37;77.10;;;34.30;;
21274;SDS011;36472;52.170;20.884;2024-01-10T05:10:06;81.43;;;34.83;;
21274;SDS011;36472;52.170;20.884;2024-01-10T05:12:35;70.90;;;33.93;;
21274;SDS011;36472;52.170;20.884;2024-01-10T05:15:05;85.33;;;38.97;;
21274;SDS011;36472;52.170;20.884;2024-01-10T05:17:36;78.93;;;38.47;;
21274;SDS011;36472;52.170;20.884;2024-01-10T05:20:05;82.37;;;37.93;;
21274;SDS011;36472;52.170;20.884;2024-01-10T05:22:37;78.00;;;36.47;;
21274;SDS011;36472;52.170;20.884;2024-01-10T05:25:08;78.30;;;34.97;;
21274;SDS011;36472;52.170;20.884;2024-01-10T05:27:37;70.33;;;33.47;;
21274;SDS011;36472;52.170;20.884;2024-01-10T05:30:07;66.17;;;34.23;;
21274;SDS011;36472;52.170;20.884;2024-01-10T05:32:39;88.00;;;41.83;;
21274;SDS011;36472;52.170;20.884;2024-01-10T05:35:10;78.73;;;35.40;;
21274;SDS011;36472;52.170;20.884;2024-01-10T05:37:39;78.20;;;35.53;;
21274;SDS011;36472;52.170;20.884;2024-01-10T05:40:09;69.13;;;31.77;;
21274;SDS011;36472;52.170;20.884;2024-01-10T05:42:38;75.07;;;33.07;;
21274;SDS011;36472;52.170;20.884;2024-01-10T05:45:08;71.03;;;33.53;;
21274;SDS011;36472;52.170;20.884;2024-01-10T05:47:37;83.23;;;39.10;;
21274;SDS011;36472;52.170;20.884;2024-01-10T05:50:07;77.77;;;35.70;;
21274;SDS011;36472;52.170;20.884;2024-01-10T05:52:38;73.60;;;34.20;;
21274;SDS011;36472;52.170;20.884;2024-01-10T05:55:07;73.17;;;32.43;;
21274;SDS011;36472;52.170;20.884;2024-01-10T05:57:36;76.07;;;31.77;;
21274;SDS011;36472;52.170;20.884;2024-01-10T06:00:06;75.60;;;35.23;;
21274;SDS011;36472;52.170;20.884;2024-01-10T06:02:36;68.40;;;33.73;;
21274;SDS011;36472;52.170;20.884;2024-01-10T06:05:07;78.83;;;35.83;;
21274;SDS011;36472;52.170;20.884;2024-01-10T06:07:38;74.97;;;35.07;;
21274;SDS011;36472;52.170;20.884;2024-01-10T06:10:09;79.00;;;34.50;;
21274;SDS011;36472;52.170;20.884;2024-01-10T06:12:39;82.60;;;34.10;;
21274;SDS011;36472;52.170;20.884;2024-01-10T06:15:08;79.33;;;35.80;;
21274;SDS011;36472;52.170;20.884;2024-01-10T06:17:38;75.77;;;31.90;;
21274;SDS011;36472;52.170;20.884;2024-01-10T06:20:07;73.40;;;33.70;;
21274;SDS011;36472;52.170;20.884;2024-01-10T06:22:39;74.13;;;34.67;;
21274;SDS011;36472;52.170;20.884;2024-01-10T06:25:09;68.73;;;32.67;;
21274;SDS011;36472;52.170;20.884;2024-01-10T06:27:37;82.50;;;35.10;;
21274;SDS011;36472;52.170;20.884;2024-01-10T06:30:07;76.93;;;33.40;;
21274;SDS011;36472;52.170;20.884;2024-01-10T06:32:38;74.03;;;33.13;;
21274;SDS011;36472;52.170;20.884;2024-01-10T06:35:07;72.37;;;32.83;;
21274;SDS011;36472;52.170;20.884;2024-01-10T06:37:37;75.43;;;34.27;;
21274;SDS011;36472;52.170;20.884;2024-01-10T06:40:11;69.60;;;32.10;;
21274;SDS011;36472;52.170;20.884;2024-01-10T06:42:40;70.17;;;33.97;;
21274;SDS011;36472;52.170;20.884;2024-01-10T06:45:10;86.03;;;39.17;;
21274;SDS011;36472;52.170;20.884;2024-01-10T06:47:39;82.73;;;35.30;;
21274;SDS011;36472;52.170;20.884;2024-01-10T06:50:09;77.97;;;33.17;;
21274;SDS011;36472;52.170;20.884;2024-01-10T06:52:39;67.87;;;33.20;;
21274;SDS011;36472;52.170;20.884;2024-01-10T06:55:09;74.00;;;34.10;;
21274;SDS011;36472;52.170;20.884;2024-01-10T06:57:38;75.80;;;33.87;;
21274;SDS011;36472;52.170;20.884;2024-01-10T07:00:07;84.60;;;34.97;;
21274;SDS011;36472;52.170;20.884;2024-01-10T07:02:38;82.17;;;34.47;;
21274;SDS011;36472;52.170;20.884;2024-01-10T07:05:08;79.93;;;35.83;;
21274;SDS011;36472;52.170;20.884;2024-01-10T07:07:37;71.43;;;33.03;;
21274;SDS011;36472;52.170;20.884;2024-01-10T07:10:08;74.87;;;33.03;;
21274;SDS011;36472;52.170;20.884;2024-01-10T07:12:38;74.53;;;33.27;;
21274;SDS011;36472;52.170;20.884;2024-01-10T07:15:08;73.50;;;32.17;;
21274;SDS011;36472;52.170;20.884;2024-01-10T07:17:38;80.70;;;34.53;;
21274;SDS011;36472;52.170;20.884;2024-01-10T07:20:09;83.17;;;40.90;;
21274;SDS011;36472;52.170;20.884;2024-01-10T07:22:41;81.97;;;35.57;;
21274;SDS011;36472;52.170;20.884;2024-01-10T07:25:11;77.40;;;33.93;;
21274;SDS011;36472;52.170;20.884;2024-01-10T07:27:42;67.10;;;30.93;;
21274;SDS011;36472;52.170;20.884;2024-01-10T07:30:11;68.33;;;31.17;;
21274;SDS011;36472;52.170;20.884;2024-01-10T07:32:41;75.17;;;32.83;;
21274;SDS011;36472;52.170;20.884;2024-01-10T07:35:12;65.67;;;31.13;;
21274;SDS011;36472;52.170;20.884;2024-01-10T07:37:43;69.43;;;31.73;;
21274;SDS011;36472;52.170;20.884;2024-01-10T07:40:12;68.57;;;31.60;;
21274;SDS011;36472;52.170;20.884;2024-01-10T07:42:42;73.00;;;31.33;;
21274;SDS011;36472;52.170;20.884;2024-01-10T07:45:12;65.73;;;29.67;;
21274;SDS011;36472;52.170;20.884;2024-01-10T07:47:41;75.33;;;34.07;;
21274;SDS011;36472;52.170;20.884;2024-01-10T07:50:10;75.33;;;33.50;;
21274;SDS011;36472;52.170;20.884;2024-01-10T07:52:43;75.70;;;34.37;;
21274;SDS011;36472;52.170;20.884;2024-01-10T07:55:13;80.13;;;36.27;;
21274;SDS011;36472;52.170;20.884;2024-01-10T07:57:42;78.27;;;38.40;;
21274;SDS011;36472;52.170;20.884;2024-01-10T08:00:12;68.13;;;32.67;;
21274;SDS011;36472;52.170;20.884;2024-01-10T08:02:42;71.43;;;33.00;;
21274;SDS011;36472;52.170;20.884;2024-01-10T08:05:11;79.77;;;36.17;;
21274;SDS011;36472;52.170;20.884;2024-01-10T08:07:40;74.57;;;33.00;;
21274;SDS011;36472;52.170;20.884;2024-01-10T08:10:11;77.67;;;33.87;;
21274;SDS011;36472;52.170;20.884;2024-01-10T08:12:40;75.67;;;37.87;;
21274;SDS011;36472;52.170;20.884;2024-01-10T08:15:10;82.10;;;36.67;;
21274;SDS011;36472;52.170;20.884;2024-01-10T08:17:39;79.83;;;35.60;;
21274;SDS011;36472;52.170;20.884;2024-01-10T08:20:08;70.57;;;34.00;;
21274;SDS011;36472;52.170;20.884;2024-01-10T08:22:43;74.33;;;32.90;;
21274;SDS011;36472;52.170;20.884;2024-01-10T08:25:12;72.10;;;31.47;;
21274;SDS011;36472;52.170;20.884;2024-01-10T08:27:42;74.47;;;33.87;;
21274;SDS011;36472;52.170;20.884;2024-01-10T08:30:12;75.10;;;35.90;;
21274;SDS011;36472;52.170;20.884;2024-01-10T08:32:41;80.60;;;39.97;;
21274;SDS011;36472;52.170;20.884;2024-01-10T08:35:11;84.73;;;37.93;;
21274;SDS011;36472;52.170;20.884;2024-01-10T08:37:40;78.17;;;36.43;;
21274;SDS011;36472;52.170;20.884;2024-01-10T08:40:12;75.10;;;34.07;;
21274;SDS011;36472;52.170;20.884;2024-01-10T08:42:42;70.23;;;33.20;;
21274;SDS011;36472;52.170;20.884;2024-01-10T08:45:11;74.40;;;35.57;;
21274;SDS011;36472;52.170;20.884;2024-01-10T08:47:42;77.77;;;33.13;;
21274;SDS011;36472;52.170;20.884;2024-01-10T08:50:11;69.97;;;32.07;;
21274;SDS011;36472;52.170;20.884;2024-01-10T08:52:40;79.97;;;34.60;;
21274;SDS011;36472;52.170;20.884;2024-01-10T08:55:09;70.37;;;32.93;;
21274;SDS011;36472;52.170;20.884;2024-01-10T08:57:40;69.93;;;33.00;;
21274;SDS011;36472;52.170;20.884;2024-01-10T09:00:10;64.57;;;30.53;;
21274;SDS011;36472;52.170;20.884;2024-01-10T09:02:43;72.40;;;32.67;;
21274;SDS011;36472;52.170;20.884;2024-01-10T09:05:12;70.90;;;32.67;;
21274;SDS011;36472;52.170;20.884;2024-01-10T09:07:41;71.50;;;31.40;;
21274;SDS011;36472;52.170;20.884;2024-01-10T09:10:11;71.60;;;32.93;;
21274;SDS011;36472;52.170;20.884;2024-01-10T09:12:41;69.87;;;33.37;;
21274;SDS011;36472;52.170;20.884;2024-01-10T09:15:13;76.17;;;33.33;;
21274;SDS011;36472;52.170;20.884;2024-01-10T09:17:43;76.20;;;32.93;;
21274;SDS011;36472;52.170;20.884;2024-01-10T09:20:12;72.10;;;33.33;;
21274;SDS011;36472;52.170;20.884;2024-01-10T09:22:42;74.10;;;35.00;;
21274;SDS011;36472;52.170;20.884;2024-01-10T09:25:13;71.47;;;33.87;;
21274;SDS011;36472;52.170;20.884;2024-01-10T09:27:42;67.73;;;34.60;;
21274;SDS011;36472;52.170;20.884;2024-01-10T09:30:12;79.53;;;40.90;;
21274;SDS011;36472;52.170;20.884;2024-01-10T09:32:44;75.40;;;35.70;;
21274;SDS011;36472;52.170;20.884;2024-01-10T09:35:14;84.50;;;40.73;;
21274;SDS011;36472;52.170;20.884;2024-01-10T09:37:45;73.67;;;35.60;;
21274;SDS011;36472;52.170;20.884;2024-01-10T09:40:16;84.27;;;37.90;;
21274;SDS011;36472;52.170;20.884;2024-01-10T09:42:48;80.10;;;37.07;;
21274;SDS011;36472;52.170;20.884;2024-01-10T09:45:19;79.10;;;37.07;;
21274;SDS011;36472;52.170;20.884;2024-01-10T09:47:52;73.47;;;34.80;;
21274;SDS011;36472;52.170;20.884;2024-01-10T09:50:25;79.23;;;37.37;;
21274;SDS011;36472;52.170;20.884;2024-01-10T09:52:56;78.10;;;36.03;;
21274;SDS011;36472;52.170;20.884;2024-01-10T09:55:36;87.57;;;38.10;;
21274;SDS011;36472;52.170;20.884;2024-01-10T09:58:06;78.30;;;37.17;;
21274;SDS011;36472;52.170;20.884;2024-01-10T10:00:37;85.37;;;39.50;;
21274;SDS011;36472;52.170;20.884;2024-01-10T10:03:09;75.83;;;37.27;;
21274;SDS011;36472;52.170;20.884;2024-01-10T10:05:40;77.80;;;36.67;;
21274;SDS011;36472;52.170;20.884;2024-01-10T10:08:10;80.17;;;36.37;;
21274;SDS011;36472;52.170;20.884;2024-01-10T10:10:43;85.70;;;38.23;;
21274;SDS011;36472;52.170;20.884;2024-01-10T10:13:23;83.70;;;38.20;;
21274;SDS011;36472;52.170;20.884;2024-01-10T10:15:57;80.30;;;40.33;;
21274;SDS011;36472;52.170;20.884;2024-01-10T10:18:27;88.70;;;37.07;;
21274;SDS011;36472;52.170;20.884;2024-01-10T10:21:06;80.07;;;38.77;;
21274;SDS011;36472;52.170;20.884;2024-01-10T10:23:39;87.83;;;42.10;;
21274;SDS011;36472;52.170;20.884;2024-01-10T10:26:12;88.20;;;40.60;;
21274;SDS011;36472;52.170;20.884;2024-01-10T10:28:48;89.73;;;40.17;;
21274;SDS011;36472;52.170;20.884;2024-01-10T10:31:19;91.03;;;41.43;;
21274;SDS011;36472;52.170;20.884;2024-01-10T10:33:49;87.13;;;38.53;;
21274;SDS011;36472;52.170;20.884;2024-01-10T10:36:19;80.67;;;39.63;;
21274;SDS011;36472;52.170;20.884;2024-01-10T10:38:48;87.53;;;42.70;;
21274;SDS011;36472;52.170;20.884;2024-01-10T10:41:19;91.57;;;42.27;;
21274;SDS011;36472;52.170;20.884;2024-01-10T10:43:49;96.73;;;46.50;;
21274;SDS011;36472;52.170;20.884;2024-01-10T10:46:23;83.47;;;44.70;;
21274;SDS011;36472;52.170;20.884;2024-01-10T10:48:56;86.43;;;45.60;;
21274;SDS011;36472;52.170;20.884;2024-01-10T10:51:35;87.30;;;40.13;;
21274;SDS011;36472;52.170;20.884;2024-01-10T10:54:05;91.40;;;41.57;;
21274;SDS011;36472;52.170;20.884;2024-01-10T10:56:38;81.40;;;41.23;;
21274;SDS011;36472;52.170;20.884;2024-01-10T10:59:11;89.80;;;41.23;;
21274;SDS011;36472;52.170;20.884;2024-01-10T11:01:44;85.90;;;40.47;;
21274;SDS011;36472;52.170;20.884;2024-01-10T11:04:15;87.77;;;45.53;;
21274;SDS011;36472;52.170;20.884;2024-01-10T11:06:45;86.33;;;41.67;;
21274;SDS011;36472;52.170;20.884;2024-01-10T11:09:14;80.97;;;38.70;;
21274;SDS011;36472;52.170;20.884;2024-01-10T11:11:54;85.07;;;42.20;;
21274;SDS011;36472;52.170;20.884;2024-01-10T11:14:41;89.87;;;44.10;;
21274;SDS011;36472;52.170;20.884;2024-01-10T11:17:37;81.70;;;39.63;;
21274;SDS011;36472;52.170;20.884;2024-01-10T11:20:41;82.80;;;39.20;;
21274;SDS011;36472;52.170;20.884;2024-01-10T11:23:37;78.23;;;38.57;;
21274;SDS011;36472;52.170;20.884;2024-01-10T11:26:13;81.90;;;41.53;;
21274;SDS011;36472;52.170;20.884;2024-01-10T11:28:45;81.70;;;39.40;;
21274;SDS011;36472;52.170;20.884;2024-01-10T11:31:16;90.07;;;43.80;;
21274;SDS011;36472;52.170;20.884;2024-01-10T11:33:58;83.27;;;40.07;;
21274;SDS011;36472;52.170;20.884;2024-01-10T11:36:31;92.00;;;43.70;;
21274;SDS011;36472;52.170;20.884;2024-01-10T11:39:02;80.23;;;37.57;;
21274;SDS011;36472;52.170;20.884;2024-01-10T11:41:33;78.43;;;39.60;;
21274;SDS011;36472;52.170;20.884;2024-01-10T11:46:58;79.10;;;39.17;;
21274;SDS011;36472;52.170;20.884;2024-01-10T11:49:28;80.13;;;39.50;;
21274;SDS011;36472;52.170;20.884;2024-01-10T11:51:58;79.43;;;37.53;;
21274;SDS011;36472;52.170;20.884;2024-01-10T11:54:37;81.20;;;41.13;;
21274;SDS011;36472;52.170;20.884;2024-01-10T11:57:12;73.63;;;36.17;;
21274;SDS011;36472;52.170;20.884;2024-01-10T11:59:49;74.40;;;36.77;;
21274;SDS011;36472;52.170;20.884;2024-01-10T12:02:20;73.40;;;36.70;;
21274;SDS011;36472;52.170;20.884;2024-01-10T12:04:53;78.03;;;40.80;;
21274;SDS011;36472;52.170;20.884;2024-01-10T12:07:23;83.33;;;37.93;;
21274;SDS011;36472;52.170;20.884;2024-01-10T12:09:53;79.83;;;38.93;;
21274;SDS011;36472;52.170;20.884;2024-01-10T12:12:22;71.87;;;37.30;;
21274;SDS011;36472;52.170;20.884;2024-01-10T12:14:53;79.20;;;39.43;;
21274;SDS011;36472;52.170;20.884;2024-01-10T12:17:24;81.77;;;38.20;;
21274;SDS011;36472;52.170;20.884;2024-01-10T12:19:56;71.90;;;37.93;;
21274;SDS011;36472;52.170;20.884;2024-01-10T12:22:26;72.47;;;37.40;;
21274;SDS011;36472;52.170;20.884;2024-01-10T12:24:55;78.13;;;39.47;;
21274;SDS011;36472;52.170;20.884;2024-01-10T12:27:24;74.97;;;36.87;;
21274;SDS011;36472;52.170;20.884;2024-01-10T12:29:56;81.67;;;38.73;;
21274;SDS011;36472;52.170;20.884;2024-01-10T12:32:29;79.20;;;39.93;;
21274;SDS011;36472;52.170;20.884;2024-01-10T12:35:01;82.80;;;39.13;;
21274;SDS011;36472;52.170;20.884;2024-01-10T12:37:32;77.87;;;40.93;;
21274;SDS011;36472;52.170;20.884;2024-01-10T12:40:01;82.97;;;40.87;;
21274;SDS011;36472;52.170;20.884;2024-01-10T12:42:36;80.23;;;39.90;;
21274;SDS011;36472;52.170;20.884;2024-01-10T12:45:07;79.07;;;38.93;;
21274;SDS011;36472;52.170;20.884;2024-01-10T12:47:49;78.13;;;38.90;;
21274;SDS011;36472;52.170;20.884;2024-01-10T12:50:22;87.57;;;41.17;;
21274;SDS011;36472;52.170;20.884;2024-01-10T12:52:52;87.50;;;44.10;;
21274;SDS011;36472;52.170;20.884;2024-01-10T12:55:25;82.43;;;43.03;;
21274;SDS011;36472;52.170;20.884;2024-01-10T12:57:55;90.30;;;45.37;;
21274;SDS011;36472;52.170;20.884;2024-01-10T13:00:30;73.57;;;38.23;;
21274;SDS011;36472;52.170;20.884;2024-01-10T13:03:02;88.10;;;42.90;;
21274;SDS011;36472;52.170;20.884;2024-01-10T13:05:32;86.33;;;41.87;;
21274;SDS011;36472;52.170;20.884;2024-01-10T13:08:01;80.47;;;39.60;;
21274;SDS011;36472;52.170;20.884;2024-01-10T13:10:32;88.57;;;42.10;;
21274;SDS011;36472;52.170;20.884;2024-01-10T13:13:01;89.55;;;44.88;;
21274;SDS011;36472;52.170;20.884;2024-01-10T13:15:32;84.03;;;42.43;;
21274;SDS011;36472;52.170;20.884;2024-01-10T13:18:01;89.27;;;43.53;;
21274;SDS011;36472;52.170;20.884;2024-01-10T13:20:32;85.70;;;41.93;;
21274;SDS011;36472;52.170;20.884;2024-01-10T13:23:01;92.33;;;43.27;;
21274;SDS011;36472;52.170;20.884;2024-01-10T13:25:31;85.83;;;44.03;;
21274;SDS011;36472;52.170;20.884;2024-01-10T13:28:00;91.53;;;43.23;;
21274;SDS011;36472;52.170;20.884;2024-01-10T13:30:29;103.37;;;45.57;;
21274;SDS011;36472;52.170;20.884;2024-01-10T13:32:59;95.37;;;44.77;;
21274;SDS011;36472;52.170;20.884;2024-01-10T13:35:29;85.13;;;45.13;;
21274;SDS011;36472;52.170;20.884;2024-01-10T13:37:58;87.67;;;43.53;;
21274;SDS011;36472;52.170;20.884;2024-01-10T13:40:27;87.33;;;42.83;;
21274;SDS011;36472;52.170;20.884;2024-01-10T13:42:58;83.37;;;42.77;;
21274;SDS011;36472;52.170;20.884;2024-01-10T13:45:29;89.40;;;44.30;;
21274;SDS011;36472;52.170;20.884;2024-01-10T13:48:00;96.27;;;47.30;;
21274;SDS011;36472;52.170;20.884;2024-01-10T13:50:29;89.50;;;47.67;;
21274;SDS011;36472;52.170;20.884;2024-01-10T13:52:58;89.43;;;43.90;;
21274;SDS011;36472;52.170;20.884;2024-01-10T13:55:28;89.60;;;45.07;;
21274;SDS011;36472;52.170;20.884;2024-01-10T13:57:57;85.80;;;44.13;;
21274;SDS011;36472;52.170;20.884;2024-01-10T14:00:26;85.50;;;44.83;;
21274;SDS011;36472;52.170;20.884;2024-01-10T14:02:55;90.37;;;41.20;;
21274;SDS011;36472;52.170;20.884;2024-01-10T14:05:28;85.27;;;43.83;;
21274;SDS011;36472;52.170;20.884;2024-01-10T14:07:57;90.03;;;43.53;;
21274;SDS011;36472;52.170;20.884;2024-01-10T14:10:27;89.60;;;43.57;;
21274;SDS011;36472;52.170;20.884;2024-01-10T14:12:56;89.77;;;43.60;;
21274;SDS011;36472;52.170;20.884;2024-01-10T14:15:25;92.10;;;42.73;;
21274;SDS011;36472;52.170;20.884;2024-01-10T14:17:55;90.83;;;45.30;;
21274;SDS011;36472;52.170;20.884;2024-01-10T14:20:25;95.83;;;51.37;;
21274;SDS011;36472;52.170;20.884;2024-01-10T14:22:56;98.83;;;46.50;;
21274;SDS011;36472;52.170;20.884;2024-01-10T14:25:28;90.37;;;44.37;;
21274;SDS011;36472;52.170;20.884;2024-01-10T14:27:57;90.17;;;43.30;;
21274;SDS011;36472;52.170;20.884;2024-01-10T14:30:27;93.23;;;47.30;;